createdAt,value
2022-08-18T00:00:49.985Z,100041.59
2022-08-18T00:03:57.286Z,100042.88
2022-08-18T00:07:10.809Z,100055.47
2022-08-18T00:10:18.185Z,100060.84
2022-08-18T00:13:20.352Z,100064.09
2022-08-18T00:16:21.834Z,100059.69
2022-08-18T00:19:45.491Z,100063.91
2022-08-18T00:22:46.584Z,100061.38
2022-08-18T00:25:50.187Z,100069.03
2022-08-18T00:28:51.605Z,100068.75
2022-08-18T00:31:53.295Z,100075.13
2022-08-18T00:34:54.978Z,100078.38
2022-08-18T00:37:58.466Z,100076.13
2022-08-18T00:40:59.937Z,100072.16
2022-08-18T00:44:04.463Z,100084.06
2022-08-18T00:47:06.030Z,100089.13
2022-08-18T00:50:08.036Z,100090.84
2022-08-18T00:53:29.381Z,100092.25
2022-08-18T00:56:35.568Z,100102.41
2022-08-18T00:59:42.857Z,100105.19
2022-08-18T01:02:50.512Z,100108.97
2022-08-18T01:06:03.416Z,100109.63
2022-08-18T01:09:05.867Z,100105.38
2022-08-18T01:12:44.313Z,100110.88
2022-08-18T01:15:31.561Z,100109.63
2022-08-18T01:18:51.591Z,100112.25
2022-08-18T01:22:00.868Z,100105.63
2022-08-18T01:25:26.302Z,100101.91
2022-08-18T01:28:29.342Z,100093.50
2022-08-18T01:31:37.545Z,100095.59
2022-08-18T01:34:39.100Z,100091.47
2022-08-18T01:37:41.309Z,100087.50
2022-08-18T01:41:06.262Z,100091.81
2022-08-18T01:44:05.145Z,100090.38
2022-08-18T01:47:06.593Z,100082.59
2022-08-18T01:50:11.086Z,100075.19
2022-08-18T01:53:12.554Z,100075.91
2022-08-18T01:56:17.551Z,100075.88
2022-08-18T01:59:19.064Z,100072.66
2022-08-18T02:02:26.029Z,100077.06
2022-08-18T02:05:33.531Z,100069.53
2022-08-18T02:08:35.483Z,100077.16
2022-08-18T02:11:36.911Z,100073.84
2022-08-18T02:14:40.434Z,100065.09
2022-08-18T02:17:44.637Z,100068.78
2022-08-18T02:20:47.897Z,100067.38
2022-08-18T02:23:53.242Z,100061.72
2022-08-18T02:26:55.537Z,100058.06
2022-08-18T02:29:59.813Z,100062.91
2022-08-18T02:33:01.725Z,100059.78
2022-08-18T02:36:04.218Z,100051.41
2022-08-18T02:39:05.628Z,100049.81
2022-08-18T02:42:07.702Z,100048.84
2022-08-18T02:45:09.739Z,100043.63
2022-08-18T02:48:11.226Z,100038.25
2022-08-18T02:51:16.786Z,100040.66
2022-08-18T02:54:20.530Z,100034.31
2022-08-18T02:57:22.478Z,100029.88
2022-08-18T03:00:23.900Z,100033.09
2022-08-18T03:03:25.354Z,100026.03
2022-08-18T03:06:28.449Z,100026.47
2022-08-18T03:09:31.804Z,100012.47
2022-08-18T03:12:33.213Z,100012.31
2022-08-18T03:15:34.695Z,100015.84
2022-08-18T03:18:36.716Z,100005.91
2022-08-18T03:21:38.171Z,100004.72
2022-08-18T03:24:39.747Z,100006.06
2022-08-18T03:27:41.154Z,100019.13
2022-08-18T03:30:43.419Z,100010.59
2022-08-18T03:33:46.455Z,100000.38
2022-08-18T03:36:50.486Z,99994.38
2022-08-18T03:39:52.753Z,99998.75
2022-08-18T03:42:54.227Z,99997.66
2022-08-18T03:45:55.629Z,99995.75
2022-08-18T03:48:58.903Z,99997.91
2022-08-18T03:52:00.770Z,99998.88
2022-08-18T03:55:02.859Z,99997.41
2022-08-18T03:58:04.514Z,99995.41
2022-08-18T04:01:05.959Z,99991.75
2022-08-18T04:04:15.055Z,100010.41
2022-08-18T04:07:17.519Z,100000.16
2022-08-18T04:10:19.814Z,100002.09
2022-08-18T04:13:21.312Z,100004.25
2022-08-18T04:16:22.731Z,100004.47
2022-08-18T04:19:27.224Z,100003.94
2022-08-18T04:22:29.380Z,100013.22
2022-08-18T04:25:33.203Z,100008.88
2022-08-18T04:28:35.287Z,100007.00
2022-08-18T04:31:37.764Z,100007.25
2022-08-18T04:34:39.338Z,99999.47
2022-08-18T04:37:41.951Z,100006.25
2022-08-18T04:40:43.475Z,100010.19
2022-08-18T04:43:45.164Z,100012.38
2022-08-18T04:46:49.524Z,100011.91
2022-08-18T04:49:50.933Z,100025.09
2022-08-18T04:53:11.093Z,100037.00
2022-08-18T04:56:27.881Z,100033.06
2022-08-18T04:59:29.293Z,100025.34
2022-08-18T05:02:33.069Z,100034.78
2022-08-18T05:05:35.244Z,100039.28
2022-08-18T05:08:36.644Z,100040.84
2022-08-18T05:11:38.926Z,100045.09
2022-08-18T05:14:41.374Z,100043.66
2022-08-18T05:17:43.222Z,100053.03
2022-08-18T05:20:48.362Z,100064.63
2022-08-18T05:23:50.656Z,100060.84
2022-08-18T05:26:53.486Z,100065.22
2022-08-18T05:29:55.373Z,100061.72
2022-08-18T05:32:59.010Z,100063.66
2022-08-18T05:36:04.131Z,100064.50
2022-08-18T05:39:11.560Z,100059.50
2022-08-18T05:42:17.637Z,100049.50
2022-08-18T05:45:20.323Z,100042.91
2022-08-18T05:48:21.792Z,100039.72
2022-08-18T05:51:29.260Z,100034.72
2022-08-18T05:55:07.668Z,100020.97
2022-08-18T05:58:17.948Z,100007.06
2022-08-18T06:01:23.881Z,99997.31
2022-08-18T06:04:34.367Z,100012.66
2022-08-18T06:07:46.893Z,100023.66
2022-08-18T06:10:50.654Z,100034.94
2022-08-18T06:13:59.436Z,100042.41
2022-08-18T06:17:24.838Z,100038.41
2022-08-18T06:20:44.436Z,100049.50
2022-08-18T06:24:07.522Z,100042.94
2022-08-18T06:27:23.042Z,100041.16
2022-08-18T06:30:39.602Z,100050.91
2022-08-18T06:33:56.201Z,100048.75
2022-08-18T06:37:11.045Z,100052.91
2022-08-18T06:40:12.495Z,100056.31
2022-08-18T06:43:16.972Z,100058.03
2022-08-18T06:46:24.084Z,100070.69
2022-08-18T06:49:36.201Z,100077.00
2022-08-18T06:52:51.403Z,100082.19
2022-08-18T06:55:52.959Z,100078.41
2022-08-18T06:58:55.473Z,100078.88
2022-08-18T07:02:24.670Z,100087.91
2022-08-18T07:05:28.990Z,100085.44
2022-08-18T07:08:37.017Z,100083.94
2022-08-18T07:11:43.162Z,100079.81
2022-08-18T07:14:48.412Z,100073.53
2022-08-18T07:17:50.256Z,100060.66
2022-08-18T07:20:56.234Z,100054.09
2022-08-18T07:24:25.774Z,100059.66
2022-08-18T07:27:49.749Z,100063.19
2022-08-18T07:31:15.628Z,100069.25
2022-08-18T07:34:33.306Z,100080.09
2022-08-18T07:37:54.933Z,100080.72
2022-08-18T07:41:02.960Z,100086.03
2022-08-18T07:44:13.808Z,100082.94
2022-08-18T07:47:26.327Z,100082.78
2022-08-18T07:50:57.412Z,100077.22
2022-08-18T07:54:45.479Z,100077.47
2022-08-18T07:57:51.947Z,100081.13
2022-08-18T08:01:42.057Z,100073.22
2022-08-18T08:05:17.022Z,100089.63
2022-08-18T08:08:39.979Z,100089.63
2022-08-18T08:12:02.364Z,100081.06
2022-08-18T08:15:17.606Z,100090.13
2022-08-18T08:18:36.790Z,100090.25
2022-08-18T08:21:44.981Z,100088.19
2022-08-18T08:25:03.208Z,100088.47
2022-08-18T08:28:16.354Z,100088.09
2022-08-18T08:31:39.754Z,100090.94
2022-08-18T08:34:44.225Z,100088.66
2022-08-18T08:37:53.297Z,100090.03
2022-08-18T08:41:08.143Z,100100.81
2022-08-18T08:44:17.762Z,100113.78
2022-08-18T08:47:47.694Z,100123.09
2022-08-18T08:50:54.428Z,100139.06
2022-08-18T08:54:20.234Z,100149.38
2022-08-18T08:57:27.798Z,100157.72
2022-08-18T09:00:30.796Z,100157.72
2022-08-18T09:03:38.233Z,100141.34
2022-08-18T09:07:24.602Z,100144.53
2022-08-18T09:11:03.621Z,100150.25
2022-08-18T09:14:43.978Z,100149.47
2022-08-18T09:18:00.607Z,100150.47
2022-08-18T09:21:13.289Z,100151.50
2022-08-18T09:24:25.764Z,100149.47
2022-08-18T09:28:00.184Z,100142.75
2022-08-18T09:31:03.089Z,100139.91
2022-08-18T09:34:22.622Z,100123.13
2022-08-18T09:38:12.764Z,100117.63
2022-08-18T09:41:34.147Z,100110.69
2022-08-18T09:44:47.553Z,100092.75
2022-08-18T09:47:57.079Z,100094.16
2022-08-18T09:51:35.276Z,100106.53
2022-08-18T09:54:53.564Z,100101.06
2022-08-18T09:58:39.762Z,100104.75
2022-08-18T10:01:42.085Z,100102.00
2022-08-18T10:04:51.171Z,100110.91
2022-08-18T10:08:28.794Z,100098.69
2022-08-18T10:11:51.009Z,100091.34
2022-08-18T10:15:33.891Z,100086.88
2022-08-18T10:18:39.599Z,100115.13
2022-08-18T10:21:56.400Z,100107.78
2022-08-18T10:25:19.822Z,100114.09
2022-08-18T10:28:48.716Z,100110.09
2022-08-18T10:31:57.628Z,100111.66
2022-08-18T10:34:59.963Z,100095.56
2022-08-18T10:38:18.659Z,100093.03
2022-08-18T10:41:30.799Z,100091.72
2022-08-18T10:44:42.548Z,100079.44
2022-08-18T10:47:45.146Z,100068.16
2022-08-18T10:51:27.494Z,100050.66
2022-08-18T10:54:52.016Z,100050.72
2022-08-18T10:58:17.636Z,100048.44
2022-08-18T11:01:32.809Z,100041.72
2022-08-18T11:04:47.321Z,100029.28
2022-08-18T11:08:03.809Z,100029.28
2022-08-18T11:11:34.525Z,100014.06
2022-08-18T11:15:23.092Z,100031.00
2022-08-18T11:18:43.030Z,100032.50
2022-08-18T11:21:51.338Z,100029.69
2022-08-18T11:24:53.443Z,100022.22
2022-08-18T11:27:56.241Z,100030.16
2022-08-18T11:30:59.326Z,100045.59
2022-08-18T11:34:01.654Z,100048.75
2022-08-18T11:37:22.593Z,100052.72
2022-08-18T11:41:09.456Z,100045.94
2022-08-18T11:43:59.758Z,100052.28
2022-08-18T11:50:55.762Z,100039.16
2022-08-18T11:57:54.453Z,100034.22
2022-08-18T12:01:01.517Z,100017.53
2022-08-18T12:04:14.022Z,100009.63
2022-08-18T12:07:28.452Z,100004.50
2022-08-18T12:10:30.045Z,99996.88
2022-08-18T12:13:31.778Z,100000.69
2022-08-18T12:16:40.532Z,99997.47
2022-08-18T12:19:47.983Z,99990.75
2022-08-18T12:22:49.894Z,99987.19
2022-08-18T12:29:12.854Z,99984.53
2022-08-18T12:32:46.768Z,99978.31
2022-08-18T12:35:42.251Z,99964.09
2022-08-18T12:38:44.894Z,99954.66
2022-08-18T12:41:54.168Z,99950.59
2022-08-18T12:44:55.582Z,99954.91
2022-08-18T12:47:57.140Z,99949.25
2022-08-18T12:51:00.892Z,99944.38
2022-08-18T12:54:07.097Z,99945.97
2022-08-18T12:57:33.238Z,99941.28
2022-08-18T13:00:44.066Z,99939.47
2022-08-18T13:03:52.746Z,99928.53
2022-08-18T13:07:13.165Z,99924.66
2022-08-18T13:10:21.849Z,99928.97
2022-08-18T13:16:53.902Z,99915.66
2022-08-18T13:19:56.525Z,99916.16
2022-08-18T13:22:59.567Z,99907.38
2022-08-18T13:26:03.030Z,99904.69
2022-08-18T13:29:05.198Z,99900.97
2022-08-18T13:32:12.066Z,99898.09
2022-08-18T13:35:13.827Z,99892.88
2022-08-18T13:38:25.878Z,99895.72
2022-08-18T13:41:31.549Z,99893.84
2022-08-18T13:44:34.065Z,99885.91
2022-08-18T13:47:38.276Z,99873.22
2022-08-18T13:50:40.273Z,99872.22
2022-08-18T13:53:57.408Z,99864.41
2022-08-18T13:57:00.983Z,99872.88
2022-08-18T14:09:51.518Z,99854.13
2022-08-18T14:12:59.398Z,99858.69
2022-08-18T14:16:01.064Z,99865.13
2022-08-18T14:24:48.660Z,99866.59
2022-08-18T14:27:56.419Z,99851.88
2022-08-18T14:31:00.765Z,99856.75
2022-08-18T14:34:04.302Z,99854.91
2022-08-18T14:37:05.898Z,99854.13
2022-08-18T14:40:12.380Z,99853.53
2022-08-18T14:43:17.147Z,99860.25
2022-08-18T14:49:28.687Z,99858.31
2022-08-18T14:52:30.923Z,99850.84
2022-08-18T14:55:34.141Z,99859.69
2022-08-18T14:58:35.692Z,99859.97
2022-08-18T15:01:42.875Z,99866.78
2022-08-18T15:04:53.006Z,99867.28
2022-08-18T15:08:03.397Z,99862.34
2022-08-18T15:11:11.821Z,99857.31
2022-08-18T15:14:14.118Z,99863.34
2022-08-18T15:17:17.250Z,99859.63
2022-08-18T15:20:29.722Z,99865.59
2022-08-18T15:23:50.136Z,99868.47
2022-08-18T15:27:05.440Z,99875.56
2022-08-18T15:30:11.327Z,99876.09
2022-08-18T15:33:15.662Z,99882.50
2022-08-18T15:36:21.474Z,99882.34
2022-08-18T15:39:30.519Z,99883.56
2022-08-18T15:42:34.287Z,99884.88
2022-08-18T15:45:51.023Z,99877.28
2022-08-18T15:48:58.153Z,99867.44
2022-08-18T15:51:59.812Z,99884.22
2022-08-18T15:55:04.718Z,99887.09
2022-08-18T15:58:12.412Z,99894.03
2022-08-18T16:01:30.433Z,99896.06
2022-08-18T16:04:34.935Z,99896.91
2022-08-18T16:07:41.143Z,99886.78
2022-08-18T16:10:46.827Z,99880.84
2022-08-18T16:13:49.310Z,99885.06
2022-08-18T16:16:50.783Z,99889.06
2022-08-18T16:19:52.205Z,99879.28
2022-08-18T16:22:53.969Z,99879.97
2022-08-18T16:26:00.772Z,99881.66
2022-08-18T16:29:02.284Z,99878.94
2022-08-18T16:32:04.811Z,99873.53
2022-08-18T16:35:19.645Z,99883.84
2022-08-18T16:38:21.799Z,99890.44
2022-08-18T16:41:23.280Z,99879.78
2022-08-18T16:44:24.858Z,99883.00
2022-08-18T16:47:26.921Z,99872.84
2022-08-18T16:50:29.623Z,99881.75
2022-08-18T16:53:39.834Z,99878.88
2022-08-18T16:56:41.960Z,99868.22
2022-08-18T17:00:02.025Z,99874.81
2022-08-18T17:03:23.887Z,99862.84
2022-08-18T17:06:28.220Z,99867.88
2022-08-18T17:09:29.746Z,99866.88
2022-08-18T17:12:31.339Z,99865.44
2022-08-18T17:15:33.158Z,99862.47
2022-08-18T17:18:36.033Z,99867.59
2022-08-18T17:21:37.890Z,99868.94
2022-08-18T17:24:41.169Z,99854.59
2022-08-18T17:27:49.407Z,99865.25
2022-08-18T17:30:54.421Z,99857.31
2022-08-18T17:34:00.932Z,99856.78
2022-08-18T17:37:03.826Z,99864.56
2022-08-18T17:40:13.246Z,99858.28
2022-08-18T17:43:24.880Z,99868.75
2022-08-18T17:46:30.081Z,99864.19
2022-08-18T17:50:26.416Z,99858.78
2022-08-18T17:53:17.461Z,99861.78
2022-08-18T17:56:35.392Z,99862.78
2022-08-18T17:59:51.982Z,99869.03
2022-08-18T18:02:53.704Z,99869.19
2022-08-18T18:06:02.998Z,99867.47
2022-08-18T18:09:11.132Z,99871.34
2022-08-18T18:12:23.361Z,99872.66
2022-08-18T18:15:31.915Z,99880.41
2022-08-18T18:18:45.023Z,99876.72
2022-08-18T18:22:03.340Z,99882.97
2022-08-18T18:25:07.505Z,99883.59
2022-08-18T18:28:29.265Z,99882.22
2022-08-18T18:31:31.411Z,99882.13
2022-08-18T18:34:45.177Z,99887.47
2022-08-18T18:38:00.132Z,99885.41
2022-08-18T18:41:03.652Z,99893.72
2022-08-18T18:44:10.508Z,99892.63
2022-08-18T18:47:33.604Z,99902.72
2022-08-18T18:50:53.032Z,99897.94
2022-08-18T18:54:23.533Z,99896.09
2022-08-18T18:57:40.267Z,99900.19
2022-08-18T19:00:53.635Z,99895.63
2022-08-18T19:04:10.055Z,99902.78
2022-08-18T19:07:21.265Z,99914.19
2022-08-18T19:10:34.932Z,99905.09
2022-08-18T19:13:44.926Z,99910.81
2022-08-18T19:17:08.504Z,99914.13
2022-08-18T19:20:16.930Z,99916.50
2022-08-18T19:23:59.509Z,99919.50
2022-08-18T19:27:03.790Z,99912.69
2022-08-18T19:30:09.447Z,99917.69
2022-08-18T19:33:18.413Z,99921.00
2022-08-18T19:36:44.017Z,99918.91
2022-08-18T19:39:55.656Z,99916.06
2022-08-18T19:43:26.553Z,99917.25
2022-08-18T19:46:37.878Z,99908.47
2022-08-18T19:49:56.435Z,99917.84
2022-08-18T19:53:14.433Z,99916.28
2022-08-18T19:56:24.649Z,99914.59
2022-08-18T19:59:45.765Z,99917.75
2022-08-18T20:03:21.283Z,99917.13
2022-08-18T20:06:49.825Z,99912.47
2022-08-18T20:10:21.106Z,99918.97
2022-08-18T20:13:38.394Z,99918.69
2022-08-18T20:16:44.921Z,99920.28
2022-08-18T20:19:57.328Z,99927.00
2022-08-18T20:23:00.165Z,99927.41
2022-08-18T20:26:01.846Z,99940.63
2022-08-18T20:29:05.076Z,99928.44
2022-08-18T20:32:19.162Z,99942.75
2022-08-18T20:35:31.609Z,99940.38
2022-08-18T20:38:35.507Z,99947.72
2022-08-18T20:41:45.137Z,99941.22
2022-08-18T20:44:49.583Z,99952.25
2022-08-18T20:48:06.956Z,99955.66
2022-08-18T20:51:16.189Z,99946.03
2022-08-18T20:54:28.198Z,99948.63
2022-08-18T20:57:34.853Z,99955.84
2022-08-18T21:00:40.405Z,99944.09
2022-08-18T21:03:46.054Z,99939.72
2022-08-18T21:06:48.358Z,99930.97
2022-08-18T21:09:52.766Z,99932.47
2022-08-18T21:12:57.730Z,99930.78
2022-08-18T21:15:59.730Z,99933.66
2022-08-18T21:19:13.761Z,99927.69
2022-08-18T21:25:16.932Z,99931.44
2022-08-18T21:28:18.596Z,99940.22
2022-08-18T21:31:44.230Z,99947.88
2022-08-18T21:34:47.157Z,99959.63
2022-08-18T21:37:58.016Z,99953.25
2022-08-18T21:41:00.919Z,99955.53
2022-08-18T21:44:13.535Z,99955.25
2022-08-18T21:47:20.802Z,99963.91
2022-08-18T21:50:33.921Z,99977.34
2022-08-18T21:53:38.187Z,99978.34
2022-08-18T21:56:40.106Z,99984.69
2022-08-18T22:00:17.052Z,99992.94
2022-08-18T22:03:21.553Z,100002.72
2022-08-18T22:06:29.010Z,100003.13
2022-08-18T22:09:52.338Z,100001.97
2022-08-18T22:13:15.014Z,99986.13
2022-08-18T22:16:27.757Z,99989.41
2022-08-18T22:19:29.214Z,99993.03
2022-08-18T22:22:49.192Z,99987.81
2022-08-18T22:25:51.229Z,99989.78
2022-08-18T22:29:13.411Z,99985.72
2022-08-18T22:32:15.477Z,99987.13
2022-08-18T22:35:17.527Z,99998.00
2022-08-18T22:38:19.081Z,100003.69
2022-08-18T22:41:21.849Z,99994.47
2022-08-18T22:44:24.072Z,99994.03
2022-08-18T22:47:25.861Z,99998.16
2022-08-18T22:50:27.283Z,99997.75
2022-08-18T22:53:29.389Z,99994.91
2022-08-18T22:56:34.346Z,99996.88
2022-08-18T22:59:36.832Z,100002.81
2022-08-18T23:02:43.962Z,100000.72
2022-08-18T23:05:45.466Z,99997.84
2022-08-18T23:08:54.999Z,100009.34
2022-08-18T23:12:05.131Z,100008.34
2022-08-18T23:15:11.129Z,100013.59
2022-08-18T23:18:13.919Z,100011.31
2022-08-18T23:21:34.734Z,100024.06
2022-08-18T23:24:37.561Z,100029.44
2022-08-18T23:27:39.403Z,100022.19
2022-08-18T23:30:41.121Z,100020.91
2022-08-18T23:33:42.859Z,100023.28
2022-08-18T23:36:46.401Z,100023.28
2022-08-18T23:39:48.226Z,100017.22
2022-08-18T23:42:51.529Z,100014.66
2022-08-18T23:45:53.138Z,100020.91
2022-08-18T23:48:57.232Z,100025.53
2022-08-18T23:51:59.945Z,100027.25
2022-08-18T23:55:06.561Z,100020.63
2022-08-18T23:58:09.514Z,100023.03
